Tiempo atmosférico en la estación meteorológica de Elgoibar, Gipuzkoa (120 m.)



Fecha
DESCASC
Temp. máxima en grados centígrados (hora)
DESCASC
Temp. mínima en grados centígrados (hora)
DESCASC
Temp. media en grados centígrados
DESCASC
Racha de viento máxima en m/sg (hora)
DESCASC
Velocidad máxima media en intervalos de 10 minutos(hora)
DESCASC
Precipitaciones diarias en mm
DESCASC
Precipitaciones de 00:00 a 06:00 en mm
DESCASC
Precipitaciones de 06:00 a 12:00 en mm
DESCASC
Precipitaciones de 12:00 a 18:00 en mm
DESCASC
Precipitaciones de 18:00 a 24:00 en mm
DESCASC
14-12-2019 16.7 (14:10) 9.3 (03:20) 13 15.56 (23:50) 6.67 (23:50) 0 0 0 0 0
13-12-2019 15.5 (14:20) 12.5 (23:59) 14 20.83 (12:20) 5.28 (01:50) 18.5 12 0.1 5.7 0.7
12-12-2019 13.7 (23:40) 7.3 (06:00) 10.5 13.61 (20:40) 4.44 (03:20) 48.9 7.3 1.7 13.5 26.4
11-12-2019 12 (01:10) 7.5 (00:00) 9.8 9.44 (13:30) 3.33 (10:00) 13.9 0 4.7 0.2 9
10-12-2019 14 (14:20) 6.6 (00:00) 10.3 5 (22:20) 2.22 (23:50) 0.1 0.1 0 0 0
09-12-2019 12.1 (15:00) 7.3 (00:00) 9.7 9.17 (13:20) 2.78 (13:20) 4.5 0 3.6 0.2 0.7
08-12-2019 12 (18:20) 5.4 (00:00) 8.7 8.89 (17:30) 3.89 (05:50) 3.6 0 0 3.6 0
07-12-2019 13.8 (16:00) 3.4 (00:00) 8.6 3.89 (20:50) 2.22 (23:59) 0 0 0 0 0
06-12-2019 15.1 (14:40) 4.3 (00:00) 9.7 6.94 (12:30) 3.61 (12:20) 0 0 0 0 0
05-12-2019 12.8 (15:00) 6.9 (00:00) 9.9 4.44 (16:00) 2.22 (16:10) 0 0 0 0 0
04-12-2019 11.8 (15:20) 0.9 (00:00) 6.4 7.78 (17:00) 3.33 (16:30) 0.2 0 0 0 0.2
03-12-2019 7.4 (16:10) 1.3 (00:00) 4.4 3.89 (11:50) 1.67 (11:50) 1.9 1.8 0.1 0 0
02-12-2019 9 (10:20) 6.1 (00:00) 7.5 7.22 (12:50) 3.61 (11:40) 19.6 8.7 10.1 0.8 0
01-12-2019 14.1 (14:30) 5.2 (00:00) 9.7 12.22 (06:20) 4.72 (05:10) 10.4 0 0 0 10.4
30-11-2019 17.2 (10:30) 6.2 (00:00) 11.7 13.61 (09:00) 6.11 (07:40) 17.6 0 0.6 16.8 0.2
29-11-2019 15.8 (15:20) 7.4 (00:00) 11.6 2.78 (23:00) 1.11 (01:00) 1.1 1.1 0 0 0
28-11-2019 12.7 (14:20) 8.5 (00:00) 10.6 4.72 (03:00) 2.22 (18:10) 6.2 0.2 0.1 5.1 0.8
27-11-2019 17 (01:10) 10 (00:00) 13.5 10 (01:20) 4.44 (15:40) 1.4 0 0 0.8 0.6
26-11-2019 19.4 (15:20) 11.5 (00:00) 15.4 17.22 (08:10) 8.33 (05:50) 0 0 0 0 0
25-11-2019 17.6 (13:00) 9.2 (00:00) 13.4 12.78 (03:40) 6.11 (04:20) 0 0 0 0 0
24-11-2019 13.3 (15:40) 7.8 (00:00) 10.6 14.17 (20:10) 6.94 (20:20) 11.2 8.5 1.8 0 0.9
23-11-2019 14.1 (00:10) 8.4 (00:00) 11.3 15.28 (08:20) 5.28 (07:20) 40.9 4.6 24.7 5.4 6.2
22-11-2019 14.6 (21:20) 6.8 (00:00) 10.7 14.72 (12:50) 5.28 (22:30) 0.1 0 0 0.1 0
21-11-2019 14.5 (14:30) 5.9 (00:00) 10.2 13.33 (06:20) 5.56 (06:30) 0 0 0 0 0
20-11-2019 13.9 (14:50) 5.9 (00:00) 9.9 12.22 (03:00) 5.28 (06:10) 0 0 0 0 0
19-11-2019 12 (15:10) 4.3 (00:00) 8.2 5.83 (23:40) 3.06 (21:50) 0 0 0 0 0
18-11-2019 10.3 (15:50) 5.4 (00:00) 7.9 6.94 (03:20) 2.5 (03:20) 5.7 2.8 2.7 0 0.2
17-11-2019 10.2 (14:50) 6.3 (00:00) 8.3 8.33 (15:40) 3.89 (15:00) 10.8 1.7 2.6 2.5 4
16-11-2019 7.8 (19:00) 1.8 (00:00) 4.8 8.61 (19:30) 4.44 (13:00) 24.6 0 12.5 11.3 0.8
15-11-2019 9.9 (13:20) 3.6 (00:00) 6.7 11.11 (08:00) 4.72 (08:00) 12 1.6 5.8 4.3 0.3

Gráficas

Temp. máximas Temp. mínimas Temp. medias Precipitaciones Rachas de viento máximas Velocidades máximas media en intervalos de 10 minutos

Datos horarios

Fecha y hora oficial Temperatura (ºC) Velocidad del viento (km/h) Dirección del viento Racha (km/h) Dirección de racha Precipitación (mm) Presión (hPa) Tendencia (hPa) Humedad (%)
2019-12-14 23:00:00 15 8 Sur 36 Sudoeste 0 996.5 -0.1 54
2019-12-14 22:00:00 15.2 13 Sur 55 Sur 0 996.6 -0.7 55
2019-12-14 21:00:00 14.7 14 Sur 47 Sur 0 996.6 -0.5 56
2019-12-14 20:00:00 14.7 13 Sudoeste 49 Sudoeste 0 996.6 -1.2 57
2019-12-14 19:00:00 14.7 8 Sudeste 38 Sur 0 997.3 -0.3 56
2019-12-14 18:00:00 14.7 15 Sur 39 Sudoeste 0 997.1 -0.9 54
2019-12-14 17:00:00 15.2 10 Sur 34 Sur 0 997.8 -0.7 54
2019-12-14 16:00:00 15.6 4 Sudoeste 35 Sudeste 0 997.6 -1.6 54
2019-12-14 15:00:00 15.7 9 Sur 36 Sudeste 0 998 -2.1 53
2019-12-14 14:00:00 16.4 3 Sur 30 Sudoeste 0 998.5 -1.8 53
2019-12-14 13:00:00 16 8 Sudeste 41 Sur 0 999.2 -0.9 56
2019-12-14 12:00:00 15 18 Sur 49 Sur 0 1000.1 0 58
2019-12-14 11:00:00 14.4 8 Sudoeste 36 Sur 0 1000.3 0.4 60
2019-12-14 10:00:00 12.6 8 Sur 41 Sur 0 1000.1 0.9 65
2019-12-14 09:00:00 12.3 14 Sur 28 Sur 0 1000.1 1.2 65
2019-12-14 08:00:00 11.5 3 Norte 18 Sudoeste 0 999.9 0.9 71
2019-12-14 07:00:00 11.4 8 Sudoeste 18 Sudoeste 0 999.2 0.2 73
2019-12-14 06:00:00 11.5 6 Sudoeste 18 Sur 0 998.9 0.1 75
2019-12-14 05:00:00 11 9 Sudoeste 23 Sudoeste 0 999 0.5 83
2019-12-14 04:00:00 9.6 8 Sudoeste 22 Sudoeste 0 999 0.7 92
2019-12-14 03:00:00 9.7 10 Sudoeste 21 Sudoeste 0 998.8 1 91
2019-12-14 02:00:00 10.3 7 Sur 14 Sudoeste 0 998.5 0.5 87
2019-12-14 01:00:00 11.4 3 Sudoeste 12 Sudoeste 0 998.3 0.2 83
2019-12-14 00:00:00 12.7 4 Sudoeste 13 Sudoeste 0 997.8 -0.2 78
2019-12-13 23:00:00 13 5 Sudoeste 19 Sur 0 998 0.3 77
2019-12-13 22:00:00 13.6 5 Sudoeste 19 Oeste 0 998.1 0.8 76
2019-12-13 21:00:00 13.3 9 Noroeste 30 Noroeste 0 998 1.4 79
2019-12-13 20:00:00 13.2 4 Este 43 Oeste 0 997.7 1.7 81
2019-12-13 19:00:00 13.5 3 Norte 33 Noroeste 0.7 997.3 1.9 83
2019-12-13 18:00:00 13.5 3 Oeste 34 Oeste 2.1 996.6 1.4 86
2019-12-13 17:00:00 13.2 0 Calma 27 Oeste 3.3 996 0.5 89
2019-12-13 16:00:00 14 6 Sudoeste 32 Sudoeste 0.3 995.4 -0.3 80
2019-12-13 15:00:00 15.2 12 Oeste 43 Sudoeste 0 995.2 -0.2 71
2019-12-13 14:00:00 15.3 10 Oeste 41 Oeste 0 995.5 1 71
2019-12-13 13:00:00 14.8 15 Oeste 75 Oeste 0 995.7 2.1 72
2019-12-13 12:00:00 15 11 Oeste 67 Sudoeste 0 995.4 3 72
2019-12-13 11:00:00 14.8 7 Sudoeste 54 Oeste 0 994.5 2.2 73
2019-12-13 10:00:00 14.9 14 Oeste 58 Noroeste 0 993.6 3.1 72
2019-12-13 09:00:00 14.9 12 Oeste 54 Oeste 0.1 992.4 2.1 72
2019-12-13 08:00:00 14.3 14 Oeste 60 Oeste 0 992.3 2.6 75
2019-12-13 07:00:00 14.8 10 Oeste 55 Sudoeste 0 990.5 0.6 73
2019-12-13 06:00:00 14.1 9 Oeste 46 Noroeste 0.8 990.3 0 82
2019-12-13 05:00:00 13.9 5 Sudoeste 46 Oeste 1.3 989.7 -0.4 82
2019-12-13 04:00:00 14.4 9 Oeste 67 Sudoeste 1.4 989.9 -0.6 79
2019-12-13 03:00:00 13.6 9 Sudoeste 58 Sudoeste 3.6 990.3 -0.5 84
2019-12-13 02:00:00 14 17 Sudoeste 67 Sudoeste 1.6 990.1 -0.2 82
2019-12-13 01:00:00 13.7 11 Sudoeste 53 Oeste 3.3 990.5 0.1 85
2019-12-13 00:00:00 13.5 12 Oeste 45 Sudoeste 2.6 990.8 0.6 86
2019-12-12 23:00:00 13 10 Sudoeste 33 Sudoeste 4.9 990.3 -0.7 89
2019-12-12 22:00:00 12.2 8 Sudoeste 29 Sur 6.1 990.4 -1 90
2019-12-12 21:00:00 12.4 6 Sudoeste 49 Oeste 4.6 990.2 -1.2 90
2019-12-12 20:00:00 11.3 10 Sudoeste 33 Sur 2.9 991 -0.2 90
2019-12-12 19:00:00 9.8 10 Sudoeste 26 Sudoeste 5.3 991.4 0.1 90
2019-12-12 18:00:00 9.2 11 Sudoeste 21 Sudoeste 5.1 991.4 -0.6 89
2019-12-12 17:00:00 9.7 8 Sudoeste 40 Sudoeste 2.9 991.2 -3.1 83
2019-12-12 16:00:00 10.1 8 Sur 44 Sudeste 1.6 991.3 -4.1 78
2019-12-12 15:00:00 9.6 9 Sur 46 Este 1.6 992 -5.2 79
2019-12-12 14:00:00 9.4 4 Sur 23 Sudeste 1.8 994.3 -4.5 81
2019-12-12 13:00:00 9.6 8 Sur 32 Sur 0.5 995.4 -4.6 79
2019-12-12 12:00:00 9.3 8 Sur 26 Sudoeste 0.3 997.2 -3.3 81
2019-12-12 11:00:00 8.8 11 Sudoeste 30 Sudoeste 0.9 998.8 -2.6 83
2019-12-12 10:00:00 8.7 8 Sudoeste 22 Sudoeste 0 1000 -1.8 80
2019-12-12 09:00:00 8.1 6 Sudoeste 26 Oeste 0.2 1000.5 -2 82
2019-12-12 08:00:00 7.7 5 Sudoeste 18 Sudoeste 0.2 1001.4 -2.2 88
2019-12-12 07:00:00 7.4 7 Sudoeste 16 Sudoeste 0.1 1001.8 -2.6 92
2019-12-12 06:00:00 7.4 8 Sudoeste 17 Sudoeste 0.6 1002.5 -2.7 92
2019-12-12 05:00:00 7.7 6 Sudoeste 24 Sur 0.6 1003.6 -1.7 88
2019-12-12 04:00:00 8.1 9 Sudoeste 31 Sudoeste 0.8 1004.4 -1.4 87
2019-12-12 03:00:00 8.2 13 Sudoeste 24 Sudoeste 2.8 1005.2 -1.3 88
2019-12-12 02:00:00 8.1 5 Sudoeste 23 Sudoeste 0.6 1005.3 -1.1 87
2019-12-12 01:00:00 8.2 9 Sudoeste 21 Sur 1.9 1005.8 -1.4 86
2019-12-12 00:00:00 8.6 6 Sudoeste 34 Sudoeste 0.8 1006.5 -1.5 82
2019-12-11 23:00:00 7.7 6 Sudoeste 23 Sur 2.6 1006.4 -0.6 90
2019-12-11 22:00:00 8.3 4 Oeste 29 Sudoeste 2.2 1007.2 0.1 81
2019-12-11 21:00:00 8.7 8 Oeste 28 Sudoeste 1.7 1008 1.7 80
2019-12-11 20:00:00 9.2 9 Sudoeste 33 Oeste 1.3 1007 0.4 75
2019-12-11 19:00:00 9.6 8 Sudoeste 26 Sudoeste 0.4 1007.1 0.1 65
2019-12-11 18:00:00 9.2 4 Sudoeste 17 Sudoeste 0 1006.3 -0.8 66
2019-12-11 17:00:00 10.5 0 Calma 21 Sur 0 1006.6 -1.2 60
2019-12-11 16:00:00 10.7 7 Sur 22 Noroeste 0 1007 -1.4 63
2019-12-11 15:00:00 10.4 3 Sudoeste 14 Sudoeste 0 1007.1 -1.6 69
2019-12-11 14:00:00 10 5 Oeste 34 Oeste 0 1007.8 -0.7 75
2019-12-11 13:00:00 9.3 4 Oeste 15 Oeste 0.2 1008.4 0.5 81
2019-12-11 12:00:00 9.3 5 Oeste 23 Sudoeste 0 1008.7 1.9 80
2019-12-11 11:00:00 8.9 8 Oeste 22 Oeste 1.2 1008.5 2.5 83
2019-12-11 10:00:00 9.3 12 Oeste 27 Oeste 2 1007.9 2.8 85
2019-12-11 09:00:00 9.6 8 Sudoeste 25 Sudoeste 1.4 1006.8 3 86
2019-12-11 08:00:00 10.4 7 Sudoeste 23 Oeste 0.1 1006 2.3 72
2019-12-11 07:00:00 10 11 Sudoeste 22 Sudoeste 0 1005.1 1.1 64
2019-12-11 06:00:00 10.5 6 Sudoeste 19 Sur 0 1003.8 -0.6 60
2019-12-11 05:00:00 10.7 8 Sudoeste 22 Sudoeste 0 1003.7 -1.6 57
2019-12-11 04:00:00 10.9 9 Sudoeste 22 Sur 0 1004 -2.2 55
2019-12-11 03:00:00 11.3 5 Sudoeste 20 Sudoeste 0 1004.4 -2.6 57
2019-12-11 02:00:00 11.1 5 Sudoeste 19 Sudoeste 0 1005.3 -1.6 58
2019-12-11 01:00:00 11.4 4 Sudoeste 20 Oeste 0 1006.2 -1.4 60
2019-12-11 00:00:00 10.8 5 Oeste 16 Sudoeste 0 1007 -1.2 66
2019-12-10 23:00:00 9.4 6 Norte 18 Sudoeste 0 1006.9 -1.7 75
2019-12-10 22:00:00 8.8 3 Nordeste 8 Sudeste 0 1007.6 -1.2 81
2019-12-10 21:00:00 8.5 0 Calma 6 Nordeste 0 1008.2 -0.6 79
2019-12-10 20:00:00 9 0 Calma 8 Oeste 0 1008.6 -0.4 76
2019-12-10 19:00:00 9.4 0 Calma 8 Sudoeste 0 1008.8 -0.6 72
2019-12-10 18:00:00 10.2 0 Calma 15 Oeste 0 1008.8 -1.1 67
2019-12-10 17:00:00 12.1 3 Sur 16 Sudoeste 0 1009 -1.8 61
2019-12-10 16:00:00 13.6 2 Sudoeste 18 Sudoeste 0 1009.4 -2.8 58
2019-12-10 15:00:00 13.1 2 Sur 13 Sudoeste 0 1009.9 -3.7 62
2019-12-10 14:00:00 13.6 3 Sur 9 Sur 0 1010.8 -4 65
2019-12-10 13:00:00 11.9 3 Sur 15 Sur 0 1012.2 -2.7 73
2019-12-10 12:00:00 10.2 0 Calma -- -- 0 1013.6 -1.7 94
2019-12-10 11:00:00 8.2 0 Calma 7 Sudeste 0 1014.8 -0.8 96
2019-12-10 10:00:00 7.1 0 Calma 8 Sudeste 0 1014.9 -1 96
2019-12-10 09:00:00 6.9 0 Calma -- -- 0 1015.3 -0.7 96
2019-12-10 08:00:00 7.3 0 Calma -- -- 0 1015.6 -0.9 96
2019-12-10 07:00:00 7.4 0 Calma 8 Este 0 1015.9 -1.4 96
2019-12-10 06:00:00 7.4 3 Este 9 Este 0 1016 -1.4 95
2019-12-10 05:00:00 7.6 0 Calma 11 Nordeste 0 1016.5 -1.2 95
2019-12-10 04:00:00 7.6 0 Calma -- -- 0 1017.3 -0.7 95
2019-12-10 03:00:00 8 0 Calma 9 Sudoeste 0 1017.4 -0.6 95
2019-12-10 02:00:00 8.1 2 Sudoeste 9 Sur 0 1017.7 -0.3 95
2019-12-10 01:00:00 8.3 0 Calma 8 Sudoeste 0.1 1018 -0.1 94
2019-12-10 00:00:00 8.4 0 Calma -- -- 0.1 1018 0 93
2019-12-09 23:00:00 8.7 0 Calma 7 Sudoeste 0 1018 0.9 91
2019-12-09 22:00:00 8.9 3 Oeste 8 Nordeste 0.4 1018.1 1.2 87
2019-12-09 21:00:00 9.5 3 Oeste 8 Noroeste 0.2 1018 1.6 79
2019-12-09 20:00:00 10.2 4 Sudoeste 10 Sudoeste 0 1017.1 1.1 73
2019-12-09 19:00:00 10.3 4 Sudoeste 17 Sudoeste 0 1016.9 1.3 72
2019-12-09 18:00:00 10.9 4 Sudoeste 22 Oeste 0 1016.4 1.5 68
2019-12-09 17:00:00 11.4 4 Oeste 16 Noroeste 0 1016 1.3 65
2019-12-09 16:00:00 11.7 0 Calma 31 Oeste 0 1015.6 1 66
2019-12-09 15:00:00 12 5 Oeste 23 Oeste 0 1014.9 0.1 67
2019-12-09 14:00:00 11.4 7 Oeste 33 Sudoeste 0 1014.7 0.4 74
2019-12-09 13:00:00 11.7 3 Sudeste 27 Sudoeste 0.2 1014.6 1.7 74
2019-12-09 12:00:00 10.8 7 Oeste 25 Oeste 0.3 1014.8 1.7 81
2019-12-09 11:00:00 10.7 2 Sudoeste 26 Oeste 2.1 1014.3 2.2 81
2019-12-09 10:00:00 10.6 9 Sudoeste 26 Sudoeste 0.2 1012.9 1.1 78
2019-12-09 09:00:00 10.2 4 Noroeste 23 Nordeste 0.8 1013.1 2 80
2019-12-09 08:00:00 10.5 8 Sudoeste 20 Sudoeste 0.2 1012.1 0.3 78
2019-12-09 07:00:00 11 4 Sudoeste 22 Sur 0 1011.8 0.1 74
2019-12-09 06:00:00 10.9 7 Sur 22 Sudoeste 0 1011.1 -0.3 75
2019-12-09 05:00:00 9.2 3 Oeste 12 Sudeste 0 1011.8 0.5 87
2019-12-09 04:00:00 8 2 Norte 19 Sur 0 1011.7 0.4 91
2019-12-09 03:00:00 7.7 9 Sudoeste 19 Sudoeste 0 1011.4 0.7 91
2019-12-09 02:00:00 7.9 6 Sudoeste 17 Sudoeste 0 1011.3 0.5 89
2019-12-09 01:00:00 8.5 6 Sur 17 Sudoeste 0 1011.3 0.2 84
2019-12-09 00:00:00 10.5 5 Sudoeste 21 Sudoeste 0 1010.7 0.2 78
2019-12-08 23:00:00 10.8 4 Sudoeste 13 Sur 0 1010.8 0 77
2019-12-08 22:00:00 11.1 0 Calma 17 Sudoeste 0 1011.1 1 75
2019-12-08 21:00:00 11.5 2 Nordeste 28 Oeste 0 1010.5 0.8 75
2019-12-08 20:00:00 11.4 6 Oeste 21 Noroeste 0 1010.8 2.4 76
2019-12-08 19:00:00 11.7 3 Oeste 24 Sudoeste 0 1010.1 2.5 79
2019-12-08 18:00:00 11.8 11 Oeste 32 Sudoeste 0.6 1009.7 2.8 90
2019-12-08 17:00:00 10.8 0 Calma 12 Oeste 0.4 1008.4 1.3 92
2019-12-08 16:00:00 10.7 0 Calma 18 Sudoeste 1.1 1007.6 0 90
2019-12-08 15:00:00 11 6 Sudoeste 17 Oeste 0.2 1006.9 -0.8 88
2019-12-08 14:00:00 10.9 6 Sudoeste 20 Sudoeste 0.8 1007.1 -0.8 87
2019-12-08 13:00:00 11.1 3 Sur 20 Sudoeste 0.5 1007.6 0 80
2019-12-08 12:00:00 11.6 6 Sudoeste 19 Sudoeste 0 1007.7 0.4 74
2019-12-08 11:00:00 11.5 4 Sudoeste 19 Sudoeste 0 1007.9 0.5 73
2019-12-08 10:00:00 9.3 6 Sudoeste 16 Sudoeste 0 1007.6 0.3 86
2019-12-08 09:00:00 7.2 5 Sudoeste 16 Oeste 0 1007.3 0.3 93
2019-12-08 08:00:00 5.6 2 Este 11 Oeste 0 1007.4 0.1 93
2019-12-08 07:00:00 5.8 3 Norte 25 Sudoeste 0 1007.3 -1.1 93
2019-12-08 06:00:00 6.1 12 Sudoeste 26 Sudoeste 0 1007 -1.5 94
2019-12-08 05:00:00 6.2 12 Oeste 23 Oeste 0 1007.3 -1.7 95
2019-12-08 04:00:00 5.7 0 Calma 11 Sudoeste 0 1008.4 -0.8 94
2019-12-08 03:00:00 5.9 0 Calma 15 Sudoeste 0 1008.5 -1 93
2019-12-08 02:00:00 6.4 0 Calma 8 Sur 0 1009 -0.4 93
2019-12-08 01:00:00 7.1 0 Calma 12 Sudoeste 0 1009.2 -0.3 92
2019-12-08 00:00:00 7.7 8 Sudoeste 14 Sudoeste 0 1009.5 0.1 92
2019-12-07 23:00:00 7.8 0 Calma 7 Noroeste 0 1009.4 -0.2 90
2019-12-07 22:00:00 8.2 0 Calma 10 Sur 0 1009.5 0.2 88
2019-12-07 21:00:00 9.6 2 Sur 14 Sur 0 1009.4 0.3 85
2019-12-07 20:00:00 10.5 6 Sudoeste 13 Sudoeste 0 1009.6 1.2 84
2019-12-07 19:00:00 10.6 0 Calma 6 Sudoeste 0 1009.3 1.5 82
2019-12-07 18:00:00 11 0 Calma 2 Sudoeste 0 1009.1 1.3 77
2019-12-07 17:00:00 12.2 3 Sudoeste 6 Nordeste 0 1008.4 -0.4 73
2019-12-07 16:00:00 13.4 0 Calma 5 Sudeste 0 1007.8 -1.6 71
2019-12-07 15:00:00 13.1 0 Calma 6 Nordeste 0 1007.8 -2.3 71
2019-12-07 14:00:00 11.7 2 Nordeste 5 Nordeste 0 1008.8 -1.7 79
2019-12-07 13:00:00 10 0 Calma -- -- 0 1009.4 -1.1 92
2019-12-07 12:00:00 8.1 0 Calma 6 Nordeste 0 1010.1 -0.2 96
2019-12-07 11:00:00 6.5 0 Calma 6 Este 0 1010.5 0.7 96
2019-12-07 10:00:00 5 0 Calma 7 Sudoeste 0 1010.5 1.2 96
2019-12-07 09:00:00 3.9 0 Calma 7 Sudoeste 0 1010.3 1.5 95
2019-12-07 08:00:00 3.7 0 Calma -- -- 0 1009.8 1.3 95
2019-12-07 07:00:00 4.2 2 Sudoeste 9 Sudoeste 0 1009.3 0.3 95
2019-12-07 06:00:00 4.5 0 Calma -- -- 0 1008.8 0.2 94
2019-12-07 05:00:00 5.4 3 Sur 11 Sudoeste 0 1008.5 -0.7 94
2019-12-07 04:00:00 5.4 0 Calma 7 Nordeste 0 1009 -0.7 92
2019-12-07 03:00:00 6 0 Calma 14 Sur 0 1008.6 -1.3 92
2019-12-07 02:00:00 6.7 0 Calma 4 Nordeste 0 1009.2 -0.3 92
2019-12-07 01:00:00 7.3 0 Calma 9 Sudoeste 0 1009.7 0.9 91
2019-12-07 00:00:00 7.1 0 Calma -- -- 0 1009.9 1.2 90
2019-12-06 23:00:00 7.3 0 Calma 9 Sudoeste 0 1009.5 1.4 90
2019-12-06 22:00:00 7.4 7 Sudoeste 13 Sudoeste 0 1008.8 1.1 90
2019-12-06 21:00:00 7.2 0 Calma 7 Oeste 0 1008.7 1.8 87
2019-12-06 20:00:00 8.1 3 Sur 12 Sudoeste 0 1008.1 1.6 84
2019-12-06 19:00:00 9.4 0 Calma 7 Noroeste 0 1007.7 1.5 78
2019-12-06 18:00:00 11.2 5 Noroeste 15 Sudoeste 0 1006.9 0.4 72
2019-12-06 17:00:00 13.4 8 Sudoeste 13 Sudoeste 0 1006.5 -0.6 58
2019-12-06 16:00:00 14.5 5 Sur 16 Sudoeste 0 1006.2 -1.7 56
2019-12-06 15:00:00 15 6 Sudoeste 23 Sudoeste 0 1006.5 -2.4 56
2019-12-06 14:00:00 13.7 2 Sudeste 21 Oeste 0 1007.1 -2.5 62
2019-12-06 13:00:00 11.5 10 Sudoeste 25 Sudoeste 0 1007.9 -1.5 70
2019-12-06 12:00:00 8.5 12 Sudoeste 22 Sudoeste 0 1008.9 -0.6 85
2019-12-06 11:00:00 6.2 6 Sudoeste 13 Sudoeste 0 1009.6 -0.1 97
2019-12-06 10:00:00 4.8 3 Este 7 Sudeste 0 1009.4 0 96
2019-12-06 09:00:00 4.3 0 Calma -- -- 0 1009.5 0.1 96
2019-12-06 08:00:00 4.5 0 Calma 12 Sudoeste 0 1009.7 0 96
2019-12-06 07:00:00 4.7 4 Sudoeste 10 Sudoeste 0 1009.4 -0.3 95
2019-12-06 06:00:00 5.1 0 Calma 12 Sudoeste 0 1009.4 -0.5 95
2019-12-06 05:00:00 5.3 4 Sudoeste 11 Sudoeste 0 1009.7 -0.3 95
2019-12-06 04:00:00 5.4 5 Sudoeste 12 Sudoeste 0 1009.7 -0.3 94
2019-12-06 03:00:00 5.9 2 Sudoeste 12 Sudoeste 0 1009.9 -0.1 93
2019-12-06 02:00:00 6.5 6 Sudoeste 12 Sudoeste 0 1010 -0.1 93
2019-12-06 01:00:00 6.3 3 Sudoeste 9 Sudoeste 0 1010 -0.4 92
2019-12-06 00:00:00 7 0 Calma 9 Sudoeste 0 1010 -0.4 91
2019-12-05 23:00:00 8.1 6 Sudoeste 13 Sur 0 1010.1 -0.4 91
2019-12-05 22:00:00 8.3 0 Calma 9 Sudoeste 0 1010.4 0.4 91
2019-12-05 21:00:00 8 0 Calma 8 Sudoeste 0 1010.4 1 90
2019-12-05 20:00:00 8.3 0 Calma -- -- 0 1010.5 1.7 87
2019-12-05 19:00:00 9.4 0 Calma 3 Norte 0 1010 1.7 84
2019-12-05 18:00:00 10.4 4 Oeste 9 Oeste 0 1009.4 1.2 80
2019-12-05 17:00:00 11.4 4 Noroeste 15 Noroeste 0 1008.8 0.3 76
2019-12-05 16:00:00 12.3 6 Oeste 16 Oeste 0 1008.3 -0.7 74
2019-12-05 15:00:00 12.8 6 Oeste 15 Oeste 0 1008.2 -1.1 74
2019-12-05 14:00:00 11.9 3 Este 11 Este 0 1008.5 -0.7 77
2019-12-05 13:00:00 10.7 0 Calma -- -- 0 1009 0.2 82
2019-12-05 12:00:00 9.9 0 Calma -- -- 0 1009.3 0.9 92
2019-12-05 11:00:00 8.7 0 Calma -- -- 0 1009.2 1.5 95
2019-12-05 10:00:00 7.8 0 Calma -- -- 0 1008.8 1.8 96
2019-12-05 09:00:00 7.1 0 Calma -- -- 0 1008.4 2.2 96
2019-12-05 08:00:00 7.1 0 Calma -- -- 0 1007.7 1.7 95
2019-12-05 07:00:00 7.2 0 Calma -- -- 0 1007 1.4 95
2019-12-05 06:00:00 7.1 0 Calma -- -- 0 1006.2 1.2 96
2019-12-05 05:00:00 7 0 Calma -- -- 0 1006 1.5 96
2019-12-05 04:00:00 7 0 Calma -- -- 0 1005.6 1.2 95
2019-12-05 03:00:00 7 0 Calma -- -- 0 1005 1.5 95
2019-12-05 02:00:00 7 0 Calma -- -- 0 1004.5 1.1 95
2019-12-05 01:00:00 7 0 Calma -- -- 0 1004.4 1.9 94
2019-12-05 00:00:00 6.9 0 Calma -- -- 0 1003.5 1.3 94
2019-12-04 23:00:00 7 0 Calma -- -- 0 1003.4 1.4 93
2019-12-04 22:00:00 7 0 Calma -- -- 0 1002.5 1.1 92
2019-12-04 21:00:00 7.1 0 Calma 12 Norte 0.2 1002.2 1.4 90
2019-12-04 20:00:00 7.3 7 Norte 19 Nordeste 0 1002 1.5 88
2019-12-04 19:00:00 9.3 4 Noroeste 13 Sudoeste 0 1001.4 1.8 78
2019-12-04 18:00:00 9.5 3 Este 15 Oeste 0 1000.8 1.3 75
2019-12-04 17:00:00 10 9 Oeste 28 Noroeste 0 1000.5 1.3 70
2019-12-04 16:00:00 10.7 8 Oeste 23 Noroeste 0 999.6 0.1 69
2019-12-04 15:00:00 11.5 0 Calma 8 Sudeste 0 999.5 -1 73
2019-12-04 14:00:00 9.9 0 Calma -- -- 0 999.2 -1.5 86
2019-12-04 13:00:00 6.5 0 Calma -- -- 0 999.5 -1.5 97
2019-12-04 12:00:00 3.6 0 Calma -- -- 0 1000.5 0.1 97
2019-12-04 11:00:00 2.8 0 Calma 8 Este 0 1000.7 0.6 97
2019-12-04 10:00:00 1.3 0 Calma 9 Sudeste 0 1001 1.3 97
2019-12-04 09:00:00 1.1 0 Calma 6 Este 0 1000.4 0.7 97
2019-12-04 08:00:00 1.3 2 Nordeste 10 Sudoeste 0 1000.1 -0.6 97
2019-12-04 07:00:00 1.3 0 Calma 14 Sudoeste 0 999.7 -1.4 97
2019-12-04 06:00:00 1.5 3 Sudoeste 14 Sudoeste 0 999.7 -1.9 96
2019-12-04 05:00:00 1.6 0 Calma 11 Sudoeste 0 1000.7 -1.4 96
2019-12-04 04:00:00 1.8 0 Calma 6 Oeste 0 1001.1 -1.9 96
2019-12-04 03:00:00 1.7 0 Calma 8 Este 0 1001.6 -2 96
2019-12-04 02:00:00 1.3 0 Calma 9 Este 0 1002.1 -1.8 96
2019-12-04 01:00:00 1.5 0 Calma 7 Este 0 1003 -1.1 95
2019-12-04 00:00:00 1.3 0 Calma 12 Sudoeste 0 1003.6 -0.7 94
2019-12-03 23:00:00 1.5 2 Sur 8 Sudoeste 0 1003.9 -0.5 93
2019-12-03 22:00:00 1.7 0 Calma 8 Sudoeste 0 1004.1 -0.5 93
2019-12-03 21:00:00 2.1 0 Calma 5 Sudoeste 0 1004.3 0.3 91
2019-12-03 20:00:00 3.1 0 Calma 7 Sudoeste 0 1004.4 0.2 90
2019-12-03 19:00:00 3.5 0 Calma 6 Este 0 1004.6 0.3 86
2019-12-03 18:00:00 5 0 Calma -- -- 0 1004 -0.7 82
2019-12-03 17:00:00 6.4 0 Calma -- -- 0 1004.2 -1.2 78
2019-12-03 16:00:00 7.2 0 Calma -- -- 0 1004.3 -1.8 76
2019-12-03 15:00:00 7 0 Calma 6 Sur 0 1004.7 -2.5 80
2019-12-03 14:00:00 6.6 3 Noroeste 8 Noroeste 0 1005.4 -2.3 85
2019-12-03 13:00:00 6.2 0 Calma 8 Nordeste 0 1006.1 -1.6 89
2019-12-03 12:00:00 6.2 5 Norte 14 Norte 0 1007.2 -0.6 93
2019-12-03 11:00:00 6 0 Calma -- -- 0 1007.7 -0.2 95
2019-12-03 10:00:00 5.7 0 Calma -- -- 0.1 1007.7 -0.3 95
2019-12-03 09:00:00 5.5 0 Calma -- -- 0 1007.8 -0.2 95
2019-12-03 08:00:00 5.5 0 Calma -- -- 0 1007.9 -0.7 94
2019-12-03 07:00:00 5.5 0 Calma -- -- 0 1008 -1 94
2019-12-03 06:00:00 5.5 0 Calma -- -- 0.1 1008 -1.1 93
2019-12-03 05:00:00 5.5 0 Calma -- -- 0.1 1008.6 -0.5 93
2019-12-03 04:00:00 5.5 0 Calma 6 Nordeste 0.3 1009 -0.5 92
2019-12-03 03:00:00 5.7 0 Calma -- -- 0.9 1009.1 -0.8 92
2019-12-03 02:00:00 5.9 0 Calma 8 Sur 0.3 1009.1 -0.7 90
2019-12-03 01:00:00 6 0 Calma -- -- 0.1 1009.5 -1 89
2019-12-03 00:00:00 6.2 0 Calma 6 Sudeste 0 1009.9 -0.4 86
2019-12-02 23:00:00 6.3 2 Este 8 Este 0 1009.8 -0.6 83
2019-12-02 22:00:00 6.5 4 Nordeste 19 Noroeste 0 1010.5 0.7 82
2019-12-02 21:00:00 6.5 4 Norte 10 Noroeste 0 1010.3 0.7 85
2019-12-02 20:00:00 6.5 0 Calma 5 Sur 0 1010.4 0.8 85
2019-12-02 19:00:00 6.7 0 Calma 5 Noroeste 0 1009.8 0.7 83
2019-12-02 18:00:00 6.9 0 Calma 14 Noroeste 0 1009.6 1.1 83
2019-12-02 17:00:00 7 8 Noroeste 19 Norte 0 1009.6 1.3 85
2019-12-02 16:00:00 7.1 9 Nordeste 20 Norte 0.1 1009.1 0.6 90
2019-12-02 15:00:00 7.7 6 Nordeste 15 Nordeste 0.5 1008.5 0.2 90
2019-12-02 14:00:00 7.9 2 Norte 18 Noroeste 0.2 1008.3 0.1 90
2019-12-02 13:00:00 8.3 9 Norte 26 Noroeste 0 1008.5 1.2 93
2019-12-02 12:00:00 8.6 10 Norte 24 Norte 2.5 1008.3 1.5 96
2019-12-02 11:00:00 8.7 5 Noroeste 13 Norte 1.6 1008.2 2 96
2019-12-02 10:00:00 8.8 0 Calma 5 Este 0.3 1007.3 1.9 96
2019-12-02 09:00:00 8.6 3 Sudeste 6 Sudeste 1 1006.8 1.9 96
2019-12-02 08:00:00 8.5 0 Calma 5 Noroeste 3.1 1006.2 1.7 96
2019-12-02 07:00:00 8.4 0 Calma -- -- 1.6 1005.4 0.8 96
2019-12-02 06:00:00 8.3 0 Calma -- -- 0.3 1004.9 0.7 96
2019-12-02 05:00:00 8.1 0 Calma 3 Norte 0.1 1004.5 0.7 96
2019-12-02 04:00:00 8.1 0 Calma 6 Este 2.4 1004.6 1 96
2019-12-02 03:00:00 8.1 0 Calma 7 Este 0 1004.2 1 95
2019-12-02 02:00:00 8.1 0 Calma -- -- 0.8 1003.8 1.2 95
2019-12-02 01:00:00 8.3 0 Calma 4 Sudeste 5.1 1003.6 1.4 95
2019-12-02 00:00:00 8.4 0 Calma 10 Sudoeste 4.8 1003.2 1.4 94
2019-12-01 23:00:00 8.4 0 Calma 13 Sudoeste 0 1002.6 1.7 94
2019-12-01 22:00:00 8.5 4 Oeste 12 Sudoeste 0 1002.2 2.2 93
2019-12-01 21:00:00 8.5 0 Calma 16 Sudeste 0.2 1001.8 2.4 92
2019-12-01 20:00:00 8.5 4 Este 12 Sudoeste 5.4 1000.9 1.9 89
2019-12-01 19:00:00 8.8 0 Calma 5 Sudoeste 0 1000 1.6 85
2019-12-01 18:00:00 10 0 Calma 5 Oeste 0 999.4 1.4 79
2019-12-01 17:00:00 11.4 0 Calma 10 Nordeste 0 999 0.8 72
2019-12-01 16:00:00 12 3 Norte 11 Nordeste 0 998.4 0.4 68
2019-12-01 15:00:00 12.5 6 Norte 12 Norte 0 998 -0.3 64
2019-12-01 14:00:00 13.8 4 Sur 6 Sudoeste 0 998.2 -0.2 64
2019-12-01 13:00:00 13.4 0 Calma 8 Nordeste 0 998 0.3 68
2019-12-01 12:00:00 12.1 2 Sudoeste 14 Oeste 0 998.3 1.2 76
2019-12-01 11:00:00 9.3 8 Sudoeste 16 Sudoeste 0 998.4 1.7 84
2019-12-01 10:00:00 8.6 10 Sudoeste 19 Sudoeste 0 997.7 1.4 85
2019-12-01 09:00:00 7.2 12 Sudoeste 22 Sudoeste 0 997.1 1.2 83
2019-12-01 08:00:00 8.5 9 Sudoeste 32 Sur 0 996.7 0.4 74
2019-12-01 07:00:00 9.4 13 Sur 44 Sur 0 996.3 -0.6 71
2019-12-01 06:00:00 9.7 15 Sur 42 Sur 0 995.9 -1.7 72
2019-12-01 05:00:00 9.2 15 Sur 39 Sudoeste 0 996.3 -1.7 79
2019-12-01 04:00:00 6.4 12 Sur 27 Sudoeste 0 996.9 -1.8 97
2019-12-01 03:00:00 5.5 0 Calma 8 Este 0 997.6 -1.7 96
2019-12-01 02:00:00 6 0 Calma 12 Sudoeste 0 998 -1.4 96
2019-12-01 01:00:00 6.4 0 Calma -- -- 0 998.7 -1.1 96
2019-12-01 00:00:00 6.5 0 Calma 5 Nordeste 0.1 999.3 -0.5 95
2019-11-30 23:00:00 6.3 0 Calma 6 Sudoeste 0 999.4 -0.5 95
2019-11-30 22:00:00 6.6 0 Calma 12 Sur 0 999.8 0 94
2019-11-30 21:00:00 7.4 0 Calma 9 Sudoeste 0 999.8 -0.3 94
2019-11-30 20:00:00 8.5 0 Calma 9 Sudoeste 0.1 999.9 -0.1 93
2019-11-30 19:00:00 9.3 0 Calma 10 Sur 0 999.8 -1.1 93
2019-11-30 18:00:00 9.3 3 Este 9 Nordeste 0.4 1000.1 -0.4 93
2019-11-30 17:00:00 9.8 0 Calma 3 Sudoeste 2.5 1000 -0.6 93
2019-11-30 16:00:00 10.4 4 Sudoeste 11 Este 4 1000.9 0.1 92
2019-11-30 15:00:00 10.5 0 Calma 18 Este 4.1 1000.5 -0.4 91
2019-11-30 14:00:00 11.1 0 Calma 10 Oeste 2.7 1000.6 1.7 90
2019-11-30 13:00:00 11.6 0 Calma 11 Oeste 3.1 1000.8 1.8 87
2019-11-30 12:00:00 12.5 5 Sudoeste 33 Oeste 0.4 1000.9 2 78
2019-11-30 11:00:00 16.9 14 Oeste 38 Oeste 0 998.9 0 59
2019-11-30 10:00:00 16.6 8 Sur 39 Sudeste 0 999 -0.2 62
2019-11-30 09:00:00 16.5 14 Sudoeste 49 Oeste 0 998.9 -0.7 63
2019-11-30 08:00:00 16.1 15 Sur 43 Sudeste 0 998.9 -1 62
2019-11-30 07:00:00 15.9 15 Sur 41 Sudoeste 0.2 999.2 -1.6 62
2019-11-30 06:00:00 14.8 15 Sur 38 Sur 0 999.6 -1.9 62
2019-11-30 05:00:00 14.3 15 Sudoeste 36 Sudoeste 0 999.9 -2.7 66
2019-11-30 04:00:00 9.3 13 Sudoeste 27 Sudoeste 0 1000.8 -2.6 89
2019-11-30 03:00:00 8.7 17 Sudoeste 28 Sudoeste 0 1001.5 -3.2 95
2019-11-30 02:00:00 7.9 10 Sudoeste 25 Oeste 0 1002.6 -2.7 95
2019-11-30 01:00:00 6.8 3 Sudoeste 13 Oeste 0 1003.4 -2.1 95
2019-11-30 00:00:00 7.4 0 Calma 10 Sur 0 1004.7 -1.2 95
2019-11-29 23:00:00 7.8 0 Calma 10 Sudoeste 0 1005.3 -0.7 94
2019-11-29 22:00:00 8.2 0 Calma -- -- 0 1005.5 -0.2 93
2019-11-29 21:00:00 8.6 0 Calma -- -- 0 1005.9 0.4 92
2019-11-29 20:00:00 9.2 0 Calma -- -- 0 1006 0.7 90
2019-11-29 19:00:00 9.4 0 Calma -- -- 0 1005.7 0.7 86
2019-11-29 18:00:00 10.8 0 Calma -- -- 0 1005.5 0.4 81
2019-11-29 17:00:00 12.8 0 Calma -- -- 0 1005.3 0 74
2019-11-29 16:00:00 14.1 0 Calma -- -- 0 1005 -0.9 68
2019-11-29 15:00:00 15.2 0 Calma -- -- 0 1005.1 -1.1 70
2019-11-29 14:00:00 15 0 Calma -- -- 0 1005.3 -1 74
2019-11-29 13:00:00 14.1 0 Calma -- -- 0 1005.9 0 81
2019-11-29 12:00:00 13.8 0 Calma -- -- 0 1006.2 1 96
2019-11-29 11:00:00 12.2 0 Calma -- -- 0 1006.3 1.9 97
2019-11-29 10:00:00 11.3 0 Calma -- -- 0 1005.9 2.2 97
2019-11-29 09:00:00 10.9 0 Calma -- -- 0 1005.2 2.6 97
2019-11-29 08:00:00 10.9 0 Calma 8 Sudoeste 0 1004.4 2.4 97
2019-11-29 07:00:00 10.6 0 Calma -- -- 0 1003.7 2.3 97
2019-11-29 06:00:00 10.4 0 Calma 7 Este 0 1002.6 1.8 97
2019-11-29 05:00:00 10.8 0 Calma 6 Sudoeste 0 1002 2.1 96
2019-11-29 04:00:00 11.2 0 Calma 6 Sudoeste 0 1001.4 1.9 96
2019-11-29 03:00:00 10.8 0 Calma 8 Sudoeste 0.2 1000.8 2.2 96
2019-11-29 02:00:00 10.8 0 Calma 7 Sudoeste 0.3 999.9 2.1 96
2019-11-29 01:00:00 11 4 Sudoeste 10 Sudoeste 0.6 999.5 2.6 96
2019-11-29 00:00:00 10.6 0 Calma 12 Oeste 0 998.6 1.2 96
2019-11-28 23:00:00 10.5 4 Sudoeste 12 Oeste 0 997.8 0.1 96
2019-11-28 22:00:00 10.2 3 Oeste 11 Sudoeste 0.1 996.9 -0.1 95
2019-11-28 21:00:00 10.4 0 Calma -- -- 0 997.4 -0.5 95
2019-11-28 20:00:00 10.5 0 Calma 6 Este 0.1 997.7 0.2 94
2019-11-28 19:00:00 10.6 0 Calma 12 Sudeste 0.6 997 0.9 93
2019-11-28 18:00:00 11.2 2 Sudeste 14 Este 3.5 997.9 1.1 93
2019-11-28 17:00:00 11.8 5 Este 13 Norte 1.4 997.5 0.4 89
2019-11-28 16:00:00 12.2 0 Calma 5 Sudeste 0.2 996.1 -1.5 87
2019-11-28 15:00:00 12.6 0 Calma -- -- 0 996.8 -1.9 85
2019-11-28 14:00:00 12.6 0 Calma -- -- 0 997.1 -1.8 86
2019-11-28 13:00:00 12.2 0 Calma -- -- 0 997.6 -1.1 92
2019-11-28 12:00:00 11.6 0 Calma 5 Este 0 998.7 0.6 95
2019-11-28 11:00:00 10.7 0 Calma 5 Sur 0 998.9 1.5 95
2019-11-28 10:00:00 9.9 0 Calma -- -- 0 998.7 1.9 95
2019-11-28 09:00:00 9.4 0 Calma -- -- 0 998.1 2 95
2019-11-28 08:00:00 9.2 0 Calma 8 Nordeste 0.1 997.4 1.3 95
2019-11-28 07:00:00 8.9 0 Calma 6 Sudoeste 0 996.8 1.9 94
2019-11-28 06:00:00 8.8 0 Calma 11 Oeste 0.1 996.1 1.8 93
2019-11-28 05:00:00 8.7 3 Oeste 10 Oeste 0.1 996.1 1.5 92
2019-11-28 04:00:00 8.5 0 Calma 13 Sudoeste 0 994.9 0.3 90
2019-11-28 03:00:00 9.4 6 Sudoeste 17 Sudoeste 0 994.3 -0.1 91
2019-11-28 02:00:00 9.5 4 Sudoeste 14 Sudoeste 0 994.6 0.1 89
2019-11-28 01:00:00 10.2 5 Sudoeste 16 Sudoeste 0 994.6 0.2 89
2019-11-28 00:00:00 10.4 8 Sudoeste 18 Sudoeste 0 994.4 -0.3 89
2019-11-27 23:00:00 10.3 3 Sudoeste 15 Sudoeste 0 994.5 -0.4 92
2019-11-27 22:00:00 10.1 0 Calma 9 Oeste 0.1 994.4 -0.3 92
2019-11-27 21:00:00 10.7 4 Oeste 18 Sudoeste 0 994.7 0 92
2019-11-27 20:00:00 10.8 2 Noroeste 11 Oeste 0 994.9 1.1 89
2019-11-27 19:00:00 11 4 Oeste 13 Sudeste 0.5 994.7 1.9 86
2019-11-27 18:00:00 11.8 4 Sudoeste 23 Sur 0.8 994.7 2.4 77
2019-11-27 17:00:00 14 9 Sur 34 Sur 0 993.8 1.3 63
2019-11-27 16:00:00 15.6 9 Sur 35 Sur 0 992.8 -0.1 55
2019-11-27 15:00:00 15.6 7 Sur 32 Sur 0 992.3 -1.3 56
2019-11-27 14:00:00 15.9 10 Sur 24 Sur 0 992.5 -1.4 55
2019-11-27 06:00:00 12.6 3 Sudoeste 20 Sudoeste 0 990.7 2.2 57
2019-11-27 05:00:00 13.8 6 Sudoeste 19 Sur 0 990 1.7 54
2019-11-27 04:00:00 14.8 6 Sudoeste 24 Sur 0 989.2 1.7 54
2019-11-27 03:00:00 14.9 9 Sudoeste 19 Sudoeste 0 988.5 1.3 56
2019-11-27 02:00:00 16.2 6 Sudoeste 36 Sudoeste 0 988.3 1.1 55
2019-11-27 01:00:00 16.9 14 Sur 29 Sudeste 0 987.5 0.8 54
2019-11-27 00:00:00 15 3 Oeste 29 Sudoeste 0 987.2 1.1 65
2019-11-26 23:00:00 14.5 8 Norte 33 Sur 0 987.2 1.5 67
2019-11-26 22:00:00 18.8 9 Sudoeste 44 Sur 0 986.7 1.1 47
2019-11-26 21:00:00 19.1 18 Sudoeste 41 Sur 0 986.1 0.9 49
2019-11-26 20:00:00 17.9 7 Sur 39 Sudoeste 0 985.7 -0.5 62
2019-11-26 19:00:00 17.8 16 Sudoeste 39 Sudoeste 0 985.6 -1.5 60
2019-11-26 18:00:00 18.8 9 Sudoeste 40 Sudeste 0 985.2 -3 56
2019-11-26 17:00:00 19 6 Sudoeste 44 Sudoeste 0 986.2 -3.3 56
2019-11-26 16:00:00 19.1 4 Sudoeste 49 Sur 0 987.1 -3.4 56
2019-11-26 15:00:00 19 16 Sudoeste 46 Sudoeste 0 988.2 -3.9 58
2019-11-26 14:00:00 18.9 10 Sudoeste 48 Sudoeste 0 989.5 -3.3 58
2019-11-26 13:00:00 18.6 7 Sur 37 Este 0 990.5 -1.9 59
2019-11-26 12:00:00 18 6 Nordeste 39 Este 0 992.1 -0.9 60
2019-11-26 11:00:00 17.4 15 Sudeste 49 Sur 0 992.8 -0.3 60
2019-11-26 10:00:00 17.3 14 Sur 52 Sudeste 0 992.4 -0.6 60
2019-11-26 09:00:00 16.3 24 Sur 62 Sur 0 993 -0.7 60
2019-11-26 08:00:00 16.2 24 Sudeste 57 Sur 0 993.1 -1.1 60
2019-11-26 07:00:00 15.9 23 Sur 59 Sur 0 993 -1.5 59
2019-11-26 06:00:00 15.7 28 Sur 55 Sur 0 993.7 -0.8 60
2019-11-26 05:00:00 15.4 26 Sur 58 Sur 0 994.2 -0.8 59
2019-11-26 04:00:00 15.2 25 Sur 56 Sur 0 994.5 -1.5 59
2019-11-26 03:00:00 15.1 25 Sur 54 Sur 0 994.5 -1.9 61
2019-11-26 02:00:00 14.5 14 Sur 44 Sur 0 995 -2.3 64
2019-11-26 01:00:00 13.8 12 Sur 41 Sur 0 996 -2.4 71
2019-11-26 00:00:00 11.5 10 Sur 33 Sudoeste 0 996.4 -2.1 93
2019-11-25 23:00:00 9.7 0 Calma 10 Sudoeste 0 997.3 -1.3 92
2019-11-25 22:00:00 10.8 0 Calma -- -- 0 998.4 -0.3 89
2019-11-25 21:00:00 12.2 0 Calma -- -- 0 998.5 -0.1 88
2019-11-25 20:00:00 12.6 0 Calma -- -- 0 998.6 0.3 86
2019-11-25 19:00:00 13.2 0 Calma -- -- 0 998.7 1 83
2019-11-25 18:00:00 13.6 0 Calma 8 Norte 0 998.6 1.4 81
2019-11-25 17:00:00 13.9 4 Norte 19 Norte 0 998.3 1 78
2019-11-25 16:00:00 14.5 10 Norte 16 Noroeste 0 997.7 0.9 76
2019-11-25 15:00:00 15.5 7 Norte 17 Norte 0 997.2 0.4 71
2019-11-25 14:00:00 16.5 8 Nordeste 18 Norte 0 997.3 0.2 68
2019-11-25 13:00:00 17 4 Noroeste 17 Noroeste 0 996.8 0.3 66
2019-11-25 12:00:00 16.5 2 Sudoeste 6 Noroeste 0 996.8 0.7 71
2019-11-25 11:00:00 13.8 0 Calma 14 Oeste 0 997.1 1.5 80
2019-11-25 10:00:00 11.2 4 Oeste 16 Sudoeste 0 996.5 1.5 85
2019-11-25 09:00:00 10.5 0 Calma 15 Oeste 0 996.1 2.5 84
2019-11-25 08:00:00 10.8 5 Sudoeste 16 Sudoeste 0 995.6 1.8 81
2019-11-25 07:00:00 12.1 4 Sudoeste 32 Sudeste 0 995 1.4 74
2019-11-25 06:00:00 13.5 17 Sur 40 Sur 0 993.6 -0.5 70
2019-11-25 05:00:00 13.4 15 Sur 45 Sudeste 0 993.8 -0.9 70
2019-11-25 04:00:00 13.2 21 Sur 46 Sur 0 993.6 -1.1 70
2019-11-25 03:00:00 12.9 12 Sur 37 Sudeste 0 994.1 -0.8 71
2019-11-25 02:00:00 12.8 9 Sur 30 Sur 0 994.7 0.1 72
2019-11-25 01:00:00 12.5 11 Sur 32 Sudeste 0 994.7 -0.5 73
2019-11-25 00:00:00 12.1 10 Sur 48 Sur 0.1 994.9 1.1 73
2019-11-24 23:00:00 11 15 Sur 37 Sur 0.3 994.6 0.2 77
2019-11-24 22:00:00 11.2 15 Sur 50 Sur 0.5 995.2 0.2 72
2019-11-24 21:00:00 12.2 23 Sur 51 Sur 0 993.8 -1.8 60
2019-11-24 20:00:00 12.1 23 Sur 48 Sur 0 994.4 -1.4 60
2019-11-24 19:00:00 12.1 19 Sur 51 Sur 0 995 -1.3 59
2019-11-24 18:00:00 12 14 Sur 39 Sudeste 0 995.6 -1.8 60
2019-11-24 17:00:00 12.1 9 Sur 35 Sudoeste 0 995.8 -2 61
2019-11-24 16:00:00 13 0 Calma 24 Sudeste 0 996.3 -2.3 66
2019-11-24 15:00:00 12.2 0 Calma 9 Nordeste 0 997.4 -1.7 71
2019-11-24 14:00:00 11.4 3 Norte 13 Oeste 0 997.8 -1.2 79
2019-11-24 13:00:00 10.7 4 Oeste 21 Sudoeste 0 998.6 -0.1 83
2019-11-24 12:00:00 10 9 Sudoeste 24 Sudoeste 0 999.1 0.8 85
2019-11-24 11:00:00 9.8 8 Sudoeste 24 Sudoeste 0 999 1.4 86
2019-11-24 10:00:00 9.2 6 Sudoeste 14 Oeste 0 998.7 1.6 92
2019-11-24 09:00:00 8.6 6 Sudoeste 20 Sudoeste 0.1 998.3 1.3 92
2019-11-24 08:00:00 8.7 12 Sudoeste 23 Sudoeste 0.1 997.6 1.4 92
2019-11-24 07:00:00 8.2 8 Sudoeste 16 Sudoeste 1.6 997.1 1.4 92
2019-11-24 06:00:00 8.6 4 Sudoeste 24 Sudoeste 1.1 997 1.8 90
2019-11-24 05:00:00 8.5 8 Sudoeste 22 Sudoeste 0.9 996.2 0.9 92
2019-11-24 04:00:00 8.6 10 Sudoeste 25 Sudoeste 0.5 995.7 1 91
2019-11-24 03:00:00 8 8 Sudoeste 22 Sudoeste 2.3 995.2 0.9 93
2019-11-24 02:00:00 8 0 Calma 16 Sudoeste 2.4 995.3 1.3 90
2019-11-24 01:00:00 8.3 5 Sudoeste 16 Oeste 1.3 994.7 0.8 89
2019-11-24 00:00:00 8.4 4 Sudoeste 17 Sur 1.3 994.3 1.3 89
2019-11-23 23:00:00 8.9 4 Sur 16 Sudoeste 0.4 994 1.7 88
2019-11-23 22:00:00 8.6 2 Sudoeste 15 Sudoeste 0.6 993.9 2.6 89
2019-11-23 21:00:00 8.7 6 Sudoeste 22 Sudoeste 1.7 993 2.4 87
2019-11-23 20:00:00 9.1 9 Sudoeste 22 Sudoeste 0.5 992.3 3 87
2019-11-23 19:00:00 9.3 4 Sudoeste 24 Sudoeste 1.7 991.3 3.3 86
2019-11-23 18:00:00 9.6 5 Sudoeste 35 Sudoeste 1.6 990.6 3.6 83
2019-11-23 17:00:00 10.1 8 Noroeste 22 Sur 0.7 989.3 3 81
2019-11-23 16:00:00 10.3 4 Sudoeste 31 Oeste 0.2 988 2.1 78
2019-11-23 15:00:00 10.4 0 Calma 24 Noroeste 1.9 987 2.3 81
2019-11-23 14:00:00 10.2 0 Calma 23 Oeste 0.6 986.3 3.1 81
2019-11-23 13:00:00 9.9 5 Sudoeste 37 Sudoeste 0.4 985.9 4.9 81
2019-11-23 12:00:00 9.7 9 Sudoeste 35 Sudoeste 1.4 984.7 5.6 81
2019-11-23 11:00:00 9.4 6 Sudoeste 41 Noroeste 3.8 983.2 6.4 84
2019-11-23 10:00:00 9.7 13 Oeste 44 Sudoeste 5.4 981 5.6 84
2019-11-23 09:00:00 10.1 12 Oeste 55 Sudoeste 4.9 979.1 4.6 81
2019-11-23 08:00:00 10.6 17 Sudoeste 43 Sudoeste 4.6 976.8 3.7 82
2019-11-23 07:00:00 9.3 9 Sur 30 Sur 4.6 975.4 3.5 84
2019-11-23 06:00:00 9.6 8 Sudoeste 30 Sudoeste 2.1 974.5 3.2 79
2019-11-23 05:00:00 10.4 12 Sur 32 Sudoeste 2.5 973.1 2.6 73
2019-11-23 04:00:00 12.1 6 Sur 50 Sudoeste 0 971.9 1.2 63
2019-11-23 03:00:00 13.5 5 Sudeste 35 Sudeste 0 971.3 0.4 56
2019-11-23 02:00:00 13.7 13 Sur 43 Sur 0 970.5 -0.3 57
2019-11-23 01:00:00 13.8 10 Sudoeste 45 Sudoeste 0 970.7 0 57
2019-11-23 00:00:00 14 13 Sudoeste 49 Sur 0 970.9 0.1 56
2019-11-22 23:00:00 14 10 Sur 52 Sur 0 970.8 0 56
2019-11-22 22:00:00 14.1 12 Sur 48 Sudoeste 0 970.7 -0.6 56
2019-11-22 21:00:00 14.3 8 Sur 34 Sudoeste 0 970.8 -0.2 60
2019-11-22 20:00:00 14.2 9 Sur 36 Sur 0 970.8 -0.1 60
2019-11-22 19:00:00 13.6 7 Oeste 30 Este 0 971.3 -0.2 62
2019-11-22 18:00:00 13.3 5 Sudeste 26 Sudoeste 0 971 -1.5 63
2019-11-22 17:00:00 13.3 4 Oeste 26 Sudoeste 0 970.9 -1.9 65
2019-11-22 16:00:00 12.9 0 Calma 48 Este 0 971.5 -1.9 65
2019-11-22 15:00:00 12.5 5 Nordeste 50 Nordeste 0.1 972.5 -2.5 63
2019-11-22 14:00:00 13.9 8 Este 40 Nordeste 0 972.8 -4 57
2019-11-22 13:00:00 13.5 3 Sudeste 53 Sudeste 0 973.4 -5.9 56
2019-11-22 12:00:00 13.7 4 Oeste 39 Nordeste 0 975 -5.3 56
2019-11-22 11:00:00 12.8 3 Noroeste 49 Este 0 976.8 -5.3 57
2019-11-22 10:00:00 12.5 10 Este 42 Nordeste 0 979.3 -3.8 58
2019-11-22 09:00:00 12.1 2 Este 43 Este 0 980.3 -3.7 58
2019-11-22 08:00:00 11.8 2 Noroeste 28 Sur 0 982.1 -3.2 58
2019-11-22 07:00:00 11.3 11 Sudoeste 39 Sudoeste 0 983.1 -3.4 59
2019-11-22 06:00:00 11 14 Sudoeste 34 Sudoeste 0 984 -3.3 60
2019-11-22 05:00:00 10.3 7 Sudoeste 27 Oeste 0 985.3 -3 63
2019-11-22 04:00:00 9.5 6 Sudoeste 22 Sudeste 0 986.5 -2.7 65
2019-11-22 03:00:00 10 9 Sur 20 Sudeste 0 987.3 -2.6 67
2019-11-22 02:00:00 7.5 3 Sudoeste 13 Sudoeste 0 988.3 -2.2 77
2019-11-22 01:00:00 7.6 9 Sudoeste 20 Sudoeste 0 989.2 -1.5 78
2019-11-22 00:00:00 6.9 2 Sur 15 Sudoeste 0 989.9 -1.4 82
2019-11-21 23:00:00 6.7 7 Sudoeste 15 Sudoeste 0 990.5 -0.9 86
2019-11-21 22:00:00 6.5 7 Sudoeste 15 Oeste 0 990.7 -0.3 86
2019-11-21 21:00:00 6.3 0 Calma 8 Sudeste 0 991.3 0.6 85
2019-11-21 20:00:00 7 0 Calma 8 Sudeste 0 991.4 1.1 81
2019-11-21 19:00:00 8.4 2 Sudoeste 6 Sudeste 0 991 1.1 74
2019-11-21 18:00:00 9.5 0 Calma 9 Sudeste 0 990.7 1.1 68
2019-11-21 17:00:00 11.5 0 Calma 11 Sur 0 990.3 0.5 59
2019-11-21 16:00:00 13.9 4 Sur 19 Este 0 989.9 -0.3 52
2019-11-21 15:00:00 14.1 4 Sudeste 21 Sudoeste 0 989.6 -0.8 54
2019-11-21 14:00:00 13.9 6 Sudoeste 24 Sudoeste 0 989.8 -0.7 54
2019-11-21 13:00:00 12.8 7 Sur 33 Sudoeste 0 990.2 -0.1 56
2019-11-21 12:00:00 12.5 11 Sur 42 Sudoeste 0 990.4 -0.1 57
2019-11-21 11:00:00 12.5 12 Sudeste 41 Sudoeste 0 990.5 0.6 57
2019-11-21 10:00:00 11.5 12 Sudeste 36 Sudoeste 0 990.3 0.7 59
2019-11-21 09:00:00 10.6 14 Sudeste 36 Sudeste 0 990.5 0.7 61
2019-11-21 08:00:00 10.5 10 Sudoeste 40 Sur 0 989.9 -0.1 61
2019-11-21 07:00:00 10.5 11 Sur 48 Sur 0 989.6 -0.2 61
2019-11-21 06:00:00 10.5 16 Sudeste 40 Este 0 989.8 -0.1 61
2019-11-21 05:00:00 10.7 15 Sur 42 Sur 0 990 -0.3 61
2019-11-21 04:00:00 10.5 4 Sudeste 43 Sudeste 0 989.8 -0.7 61
2019-11-21 03:00:00 10.7 7 Sur 42 Sur 0 989.9 -0.8 61
2019-11-21 02:00:00 10.6 15 Sudeste 43 Sudeste 0 990.3 -0.7 60
2019-11-21 01:00:00 10.3 12 Sudoeste 27 Oeste 0 990.5 -0.7 61
2019-11-21 00:00:00 10.7 6 Sudoeste 25 Sudoeste 0 990.7 -0.3 60
2019-11-20 23:00:00 10.3 12 Sudoeste 27 Sudoeste 0 991 0 61
2019-11-20 22:00:00 10.6 6 Sudoeste 26 Sudoeste 0 991.2 0.1 60
2019-11-20 21:00:00 10.5 7 Sudoeste 20 Sudoeste 0 991 0.1 61
2019-11-20 20:00:00 10.7 2 Noroeste 13 Sudoeste 0 991 0.2 59
2019-11-20 19:00:00 10.7 0 Calma 12 Sudoeste 0 991.1 0.6 58
2019-11-20 18:00:00 11.2 5 Sudoeste 38 Sudoeste 0 990.9 0.4 54
2019-11-20 17:00:00 12.1 6 Sudoeste 27 Sudoeste 0 990.8 -0.6 51
2019-11-20 16:00:00 12.9 4 Sur 27 Sudoeste 0 990.5 -1.8 49
2019-11-20 15:00:00 13.7 9 Sudoeste 24 Sudoeste 0 990.5 -2.7 49
2019-11-20 14:00:00 13.2 4 Sur 22 Sudoeste 0 991.4 -2.1 51
2019-11-20 13:00:00 12.1 5 Sudoeste 27 Sudoeste 0 992.3 -1.7 54
2019-11-20 12:00:00 11.2 8 Sur 40 Sudoeste 0 993.2 -1 54
2019-11-20 11:00:00 10.4 8 Sudoeste 36 Sudoeste 0 993.5 -0.8 56
2019-11-20 10:00:00 9.9 10 Sur 41 Sur 0 994 -0.2 57
2019-11-20 09:00:00 9.1 9 Sudoeste 33 Sudoeste 0 994.2 -0.2 59
2019-11-20 08:00:00 8.5 12 Sudoeste 33 Sudoeste 0 994.3 -0.7 58
2019-11-20 07:00:00 10 17 Sur 42 Sur 0 994.2 -1.3 54
2019-11-20 06:00:00 9.9 17 Sur 44 Sur 0 994.4 -1.7 54
2019-11-20 05:00:00 10.1 15 Sur 44 Sur 0 995 -1.4 55
2019-11-20 04:00:00 9.5 11 Sur 39 Sudoeste 0 995.5 -1.7 59
2019-11-20 03:00:00 9.7 13 Sur 44 Sur 0 996.1 -1.7 61
2019-11-20 02:00:00 8.3 13 Sur 37 Sur 0 996.4 -2 70
2019-11-20 01:00:00 8.2 16 Sudoeste 34 Sur 0 997.2 -1.5 71
2019-11-20 00:00:00 5.9 10 Sudoeste 21 Oeste 0 997.8 -1 88
2019-11-19 23:00:00 5.6 6 Sudoeste 18 Oeste 0 998.4 -0.6 92
2019-11-19 22:00:00 5.6 4 Oeste 19 Oeste 0 998.7 -0.5 93
2019-11-19 21:00:00 5.3 3 Sudoeste 13 Sudoeste 0 998.8 -0.5 93
2019-11-19 20:00:00 5.4 3 Oeste 14 Oeste 0 999 -0.4 90
2019-11-19 19:00:00 6 0 Calma 5 Sudeste 0 999.2 -0.7 87
2019-11-19 18:00:00 7.2 0 Calma 6 Sudeste 0 999.3 -0.9 81
2019-11-19 17:00:00 9 0 Calma 6 Oeste 0 999.4 -1.4 75
2019-11-19 16:00:00 10.7 3 Sudeste 7 Sudeste 0 999.9 -2 69
2019-11-19 15:00:00 11.7 2 Sudeste 6 Sudeste 0 1000.2 -2.8 65
2019-11-19 14:00:00 11.7 0 Calma 6 Sur 0 1000.8 -3.1 70
2019-11-19 13:00:00 9.5 0 Calma 10 Este 0 1001.9 -2.3 88
2019-11-19 12:00:00 7.7 2 Este 9 Este 0 1003 -1 97
2019-11-19 11:00:00 5.8 0 Calma 9 Este 0 1003.9 -0.1 97
2019-11-19 10:00:00 5.1 0 Calma 7 Sur 0 1004.2 0.2 97
2019-11-19 09:00:00 4.9 0 Calma 7 Este 0 1004 0.2 97
2019-11-19 08:00:00 4.4 4 Este 9 Este 0 1004 0 97
2019-11-19 07:00:00 4.4 0 Calma 9 Sudeste 0 1004 0 96
2019-11-19 06:00:00 4.7 5 Este 10 Este 0 1003.8 -0.5 96
2019-11-19 05:00:00 4.8 6 Este 10 Este 0 1004 -0.4 96
2019-11-19 04:00:00 5 0 Calma -- -- 0 1004 -0.8 95
2019-11-19 03:00:00 5.5 0 Calma -- -- 0 1004.3 -0.7 96
2019-11-19 02:00:00 5.8 0 Calma -- -- 0 1004.4 -0.7 96
2019-11-19 01:00:00 5.7 0 Calma 6 Nordeste 0 1004.8 -0.4 95
2019-11-19 00:00:00 5.9 0 Calma -- -- 0 1005 -0.1 95
2019-11-18 23:00:00 5.6 0 Calma 6 Sudoeste 0 1005.1 0.3 94
2019-11-18 22:00:00 5.9 0 Calma 11 Sudoeste 0 1005.2 0.7 93
2019-11-18 21:00:00 6.5 0 Calma 9 Sudoeste 0 1005.1 1.3 92
2019-11-18 20:00:00 7 0 Calma 9 Sudoeste 0 1004.8 1.2 91
2019-11-18 19:00:00 7.4 0 Calma 8 Oeste 0.2 1004.5 1.3 87
2019-11-18 18:00:00 7.9 4 Sudoeste 7 Sudoeste 0 1003.8 1.1 81
2019-11-18 17:00:00 9.5 2 Oeste 8 Sudoeste 0 1003.6 0.8 72
2019-11-18 16:00:00 10 4 Sudoeste 10 Sur 0 1003.2 0.7 71
2019-11-18 15:00:00 9.2 0 Calma 11 Sudeste 0 1002.7 0.2 75
2019-11-18 14:00:00 9.3 0 Calma 9 Sudeste 0 1002.8 0.7 77
2019-11-18 13:00:00 8.3 0 Calma 11 Norte 0 1002.5 0.8 81
2019-11-18 12:00:00 8 2 Nordeste 18 Nordeste 0.6 1002.5 1.5 92
2019-11-18 11:00:00 7.7 0 Calma 8 Este 0.1 1002.1 1.7 95
2019-11-18 10:00:00 6.5 0 Calma 14 Este 1 1001.7 2 95
2019-11-18 09:00:00 6.4 3 Sudoeste 17 Oeste 0.8 1001 1.7 95
2019-11-18 08:00:00 6 0 Calma -- -- 0.2 1000.4 2.1 95
2019-11-18 07:00:00 6.5 0 Calma 7 Sudeste 0 999.7 1.6 95
2019-11-18 06:00:00 6.3 0 Calma 8 Este 0 999.3 2 94
2019-11-18 05:00:00 5.9 5 Nordeste 10 Nordeste 0 998.3 1.2 94
2019-11-18 04:00:00 6.7 0 Calma 25 Norte 0.4 998.1 1.5 93
2019-11-18 03:00:00 7.1 2 Sudoeste 9 Oeste 0 997.3 1.4 95
2019-11-18 02:00:00 7.7 4 Oeste 9 Sudoeste 2.2 997.1 2.1 95
2019-11-18 01:00:00 7.4 0 Calma 11 Este 0.2 996.6 1.8 95
2019-11-18 00:00:00 7.4 0 Calma 10 Oeste 2 995.9 1.5 94
2019-11-17 23:00:00 7.3 0 Calma 9 Sur 1.1 995 1.2 93
2019-11-17 22:00:00 7.7 3 Sur 10 Oeste 0.3 994.8 1.1 91
2019-11-17 21:00:00 7.9 6 Oeste 22 Oeste 0.5 994.4 0.6 90
2019-11-17 20:00:00 7.9 7 Sudoeste 15 Sudoeste 0 993.8 -0.2 89
2019-11-17 19:00:00 8.3 0 Calma 10 Sudoeste 0.1 993.7 -0.1 88
2019-11-17 18:00:00 8.9 4 Sudoeste 26 Oeste 0.2 993.8 -0.2 88
2019-11-17 17:00:00 9.4 0 Calma 19 Noroeste 0.2 994 -0.2 84
2019-11-17 16:00:00 10 8 Sudoeste 30 Sudoeste 0 993.8 -1 81
2019-11-17 15:00:00 9.9 14 Sudoeste 27 Sudoeste 0.3 994 -1 83
2019-11-17 14:00:00 9.3 7 Sudoeste 16 Sudoeste 0.3 994.2 -1.3 88
2019-11-17 13:00:00 8.3 5 Sudoeste 14 Sudoeste 1.5 994.8 -1.3 87
2019-11-17 12:00:00 8.2 5 Sudoeste 26 Sudoeste 0.5 995 -0.8 86
2019-11-17 11:00:00 7.7 2 Oeste 16 Sudeste 1.4 995.5 -0.4 87
2019-11-17 10:00:00 7.4 8 Sudoeste 20 Sur 0.6 996.1 -0.5 85
2019-11-17 09:00:00 6.7 0 Calma 10 Sudoeste 0 995.8 -1.1 90
2019-11-17 08:00:00 6.6 5 Sudoeste 15 Sur 0.1 995.9 -1.3 92
2019-11-17 07:00:00 6.4 3 Sudoeste 10 Oeste 0 996.6 -0.9 93
2019-11-17 06:00:00 6.4 0 Calma 11 Sudoeste 0.3 996.9 -1.1 92
2019-11-17 05:00:00 6.5 2 Oeste 21 Sudoeste 0.7 997.2 -1.1 92
2019-11-17 04:00:00 6.5 10 Sudoeste 16 Sudoeste 0.5 997.5 -1.1 92
2019-11-17 03:00:00 6.5 9 Sudoeste 18 Sudoeste 0.1 998 -0.7 90
2019-11-17 02:00:00 6.7 6 Sudoeste 18 Sudoeste 0 998.3 -0.9 87
2019-11-17 01:00:00 6.8 7 Sudoeste 26 Sur 0.1 998.6 -0.2 86
2019-11-17 00:00:00 7.5 12 Sudoeste 26 Sur 0.1 998.7 -0.4 84
2019-11-16 23:00:00 7.2 8 Sudoeste 28 Sudoeste 0.1 999.2 0 82
2019-11-16 22:00:00 7.6 13 Sudoeste 28 Sudoeste 0 998.8 -0.2 79
2019-11-16 21:00:00 7.4 6 Sudoeste 22 Sudoeste 0.1 999.1 0.7 83
2019-11-16 20:00:00 7.6 12 Sudoeste 31 Sudoeste 0.2 999.2 0.7 84
2019-11-16 19:00:00 7.7 13 Sudoeste 28 Sur 0.3 999 1.2 84
2019-11-16 18:00:00 7.6 10 Sudoeste 28 Sudoeste 1.2 998.4 1.1 86
2019-11-16 17:00:00 7.3 8 Sudoeste 21 Sur 3 998.5 1.1 89
2019-11-16 16:00:00 7.5 10 Sudoeste 28 Sudoeste 0.7 997.8 0 85
2019-11-16 15:00:00 6.9 12 Sudoeste 29 Sudoeste 0.6 997.3 -0.6 87
2019-11-16 14:00:00 6.4 11 Sudoeste 27 Sur 1.6 997.4 -0.4 87
2019-11-16 13:00:00 5.8 16 Sur 31 Sudoeste 4.2 997.8 0.5 87
2019-11-16 12:00:00 5.8 9 Sur 24 Sur 4.6 997.9 1.1 89
2019-11-16 11:00:00 5.6 9 Sudoeste 25 Sudoeste 5 997.8 1.3 94
2019-11-16 10:00:00 4.6 7 Sudoeste 17 Sudoeste 2.8 997.3 1 94
2019-11-16 09:00:00 4 7 Sudoeste 19 Sudoeste 0 996.8 0.5 95
2019-11-16 08:00:00 3.4 9 Sudoeste 21 Sudoeste 0 996.5 0.2 96
2019-11-16 07:00:00 2.6 7 Sur 20 Sudoeste 0.1 996.3 0.4 96
2019-11-16 06:00:00 2 0 Calma 4 Este 0 996.3 0.1 96
2019-11-16 05:00:00 2.5 3 Nordeste 8 Nordeste 0 996.3 0.9 96
2019-11-16 04:00:00 2.8 0 Calma 5 Nordeste 0 995.9 0.7 95
2019-11-16 03:00:00 2.8 0 Calma 2 Sur 0 996.2 1.6 94
2019-11-16 02:00:00 2.6 2 Sudeste 9 Sudoeste 0 995.4 1.4 93
2019-11-16 01:00:00 3.1 2 Sur 18 Sudoeste 0 995.2 1.8 93
2019-11-16 00:00:00 3.6 0 Calma 9 Sudoeste 0 994.6 1.7 91
2019-11-15 23:00:00 4.4 2 Sur 17 Sudoeste 0 994 1.5 89
2019-11-15 22:00:00 4.6 3 Sur 18 Oeste 0 993.4 2 87
2019-11-15 21:00:00 5.4 8 Sudoeste 21 Sudoeste 0 992.9 2.3 86
2019-11-15 20:00:00 5.3 11 Sudoeste 22 Sudoeste 0.1 992.5 2.7 87
2019-11-15 19:00:00 5.8 5 Sudoeste 19 Sudoeste 0.2 991.4 2.3 87
2019-11-15 18:00:00 6.2 5 Sudoeste 26 Sudoeste 0 990.6 1.8 87
2019-11-15 17:00:00 6.1 11 Sudoeste 31 Sudoeste 0.7 989.8 1.6 88
2019-11-15 16:00:00 6.7 15 Sudoeste 30 Sudoeste 0.1 989.1 1 89
2019-11-15 15:00:00 6.3 4 Sudoeste 27 Noroeste 3.5 988.8 0.8 87
2019-11-15 14:00:00 8.6 5 Oeste 13 Oeste 0 988.2 1.4 78
2019-11-15 13:00:00 9.5 4 Nordeste 22 Noroeste 0 988.1 2.9 73
2019-11-15 12:00:00 8.8 5 Noroeste 18 Noroeste 0.1 988 3.1 79
2019-11-15 11:00:00 8 3 Oeste 35 Sudoeste 0.6 986.8 1.9 87
2019-11-15 10:00:00 6.3 11 Sudoeste 40 Sur 1.3 985.2 0.3 85
2019-11-15 09:00:00 6.2 13 Sur 39 Sur 0.8 984.9 0.4 82
2019-11-15 08:00:00 6 17 Sur 40 Sur 0.8 984.9 0.1 83
2019-11-15 07:00:00 5.4 8 Sur 27 Sudoeste 2.2 984.9 -0.1 84
2019-11-15 06:00:00 6.1 14 Sur 30 Sur 1.4 984.5 -1.1 80
2019-11-15 05:00:00 6.1 10 Sur 27 Sudoeste 0 984.8 -0.9 77
2019-11-15 04:00:00 6.2 8 Sur 24 Sudoeste 0.2 985 -1.2 77
2019-11-15 03:00:00 6.4 5 Sudoeste 17 Sudoeste 0 985.6 -0.7 78
2019-11-15 02:00:00 5.7 7 Sudoeste 17 Sudoeste 0 985.7 -0.4 84
2019-11-15 01:00:00 5.8 7 Sudoeste 18 Sudoeste 0 986.2 0.4 82
2019-11-15 00:00:00 5.9 3 Oeste 15 Sudoeste 0 986.3 1 81